Time;durP1;ratioP1;P1;durP2;ratioP2;P2;SDS_P1;SDS_P2;PMS_P1;PMS_P2;Temp;Humidity;BMP_temperature;BMP_pressure;BME280_temperature;BME280_humidity;BME280_pressure;Samples;Min_cycle;Max_cycle;Signal;HPM_P1;HPM_P2
2023/08/06 00:00:12;;;;;;;4.05;0.60;;;;;;;14.96;100.00;100447.03;5115852;28;20066;-60
2023/08/06 00:02:41;;;;;;;4.00;1.13;;;;;;;15.00;100.00;100452.69;5097311;28;20059;-60
2023/08/06 00:05:08;;;;;;;5.53;1.13;;;;;;;15.18;100.00;100452.09;5116184;28;20063;-60
2023/08/06 00:07:36;;;;;;;3.63;0.90;;;;;;;15.28;100.00;100456.31;5097615;28;20052;-60
2023/08/06 00:10:04;;;;;;;5.20;0.93;;;;;;;15.18;100.00;100473.47;5115571;28;20052;-60
2023/08/06 00:12:31;;;;;;;6.10;0.85;;;;;;;15.09;100.00;100470.81;5115415;28;20039;-60
2023/08/06 00:14:58;;;;;;;5.50;0.95;;;;;;;15.00;100.00;100466.53;5115927;28;20399;-60
2023/08/06 00:17:26;;;;;;;7.47;1.17;;;;;;;14.90;100.00;100480.91;5107155;28;20044;-59
2023/08/06 00:19:53;;;;;;;4.43;0.90;;;;;;;14.97;100.00;100475.56;5097238;28;20047;-60
2023/08/06 00:22:21;;;;;;;7.15;1.08;;;;;;;15.03;100.00;100485.28;5111348;28;20063;-60
2023/08/06 00:24:48;;;;;;;3.63;0.90;;;;;;;14.97;100.00;100490.25;5097264;28;20047;-59
2023/08/06 00:27:15;;;;;;;5.65;1.20;;;;;;;15.10;100.00;100483.53;5115910;28;20051;-60
2023/08/06 00:29:43;;;;;;;5.07;1.40;;;;;;;15.02;100.00;100503.06;5096805;28;20052;-60
2023/08/06 00:32:10;;;;;;;5.63;1.40;;;;;;;15.29;100.00;100489.28;5115621;28;20055;-60
2023/08/06 00:34:39;;;;;;;7.78;1.45;;;;;;;15.32;100.00;100487.78;5107514;28;20462;-61
2023/08/06 00:37:06;;;;;;;5.47;1.20;;;;;;;15.26;100.00;100503.03;5111306;28;20055;-61
2023/08/06 00:39:34;;;;;;;4.82;1.40;;;;;;;15.01;100.00;100505.03;5096636;28;20056;-60
2023/08/06 00:42:01;;;;;;;7.35;1.08;;;;;;;15.05;100.00;100522.59;5096663;28;20051;-59
2023/08/06 00:44:28;;;;;;;6.18;1.30;;;;;;;15.06;100.00;100515.91;5122065;27;20063;-60
2023/08/06 00:46:56;;;;;;;5.03;1.20;;;;;;;15.28;100.00;100518.19;5117449;27;20066;-60
2023/08/06 00:49:23;;;;;;;5.95;1.20;;;;;;;15.16;100.00;100518.22;5136147;27;20091;-60
2023/08/06 00:51:51;;;;;;;4.90;1.33;;;;;;;14.79;100.00;100518.56;5100331;27;20047;-61
2023/08/06 00:54:19;;;;;;;6.45;1.60;;;;;;;14.85;100.00;100519.97;5134674;27;20043;-60
2023/08/06 00:56:46;;;;;;;8.48;1.75;;;;;;;15.13;100.00;100520.88;5122295;27;20051;-60
2023/08/06 00:59:14;;;;;;;6.78;1.55;;;;;;;14.89;100.00;100531.97;5117130;27;20478;-62
2023/08/06 01:01:41;;;;;;;5.93;1.60;;;;;;;15.01;100.00;100535.53;5134794;27;20611;-60
2023/08/06 01:04:09;;;;;;;8.65;2.10;;;;;;;14.98;100.00;100543.75;5134855;27;20059;-60
2023/08/06 01:06:44;;;;;;;8.82;1.40;;;;;;;14.86;100.00;100536.25;5120626;27;20056;-60
2023/08/06 01:09:31;;;;;;;6.43;1.67;;;;;;;14.89;100.00;100543.06;5096184;28;20052;-60
2023/08/06 01:12:05;;;;;;;7.78;1.95;;;;;;;14.80;100.00;100550.69;5092626;28;20411;-60
2023/08/06 01:14:50;;;;;;;7.22;1.90;;;;;;;14.72;100.00;100554.34;5070345;28;20055;-59
2023/08/06 01:17:18;;;;;;;10.15;2.10;;;;;;;14.83;100.00;100564.69;5096139;28;20507;-60
2023/08/06 01:19:46;;;;;;;9.23;2.08;;;;;;;14.73;100.00;100562.38;5113233;28;20039;-61
2023/08/06 01:22:14;;;;;;;11.50;2.30;;;;;;;14.94;100.00;100568.59;5112194;28;20146;-60
2023/08/06 01:24:45;;;;;;;9.32;2.38;;;;;;;14.95;100.00;100563.88;5113710;28;20054;-60
2023/08/06 01:27:39;;;;;;;13.00;2.80;;;;;;;14.90;100.00;100578.78;5095802;28;20060;-60
2023/08/06 01:30:13;;;;;;;15.45;2.55;;;;;;;15.00;100.00;100580.28;5083271;28;20051;-60
2023/08/06 01:32:44;;;;;;;7.63;2.63;;;;;;;14.74;100.00;100586.16;5079991;28;20043;-60
2023/08/06 01:35:14;;;;;;;6.95;2.35;;;;;;;14.98;100.00;100583.41;5093152;28;20067;-60
2023/08/06 01:37:41;;;;;;;7.45;2.22;;;;;;;14.72;100.00;100587.63;5075928;28;20586;-60
2023/08/06 01:40:12;;;;;;;6.15;2.10;;;;;;;14.93;100.00;100610.53;5121336;27;20055;-60
2023/08/06 01:42:40;;;;;;;7.68;2.35;;;;;;;14.99;98.58;100598.09;5115980;27;20047;-60
2023/08/06 01:45:08;;;;;;;9.93;3.05;;;;;;;14.94;97.83;100610.19;5096740;28;20494;-59
2023/08/06 01:47:36;;;;;;;13.20;2.80;;;;;;;14.96;97.50;100615.41;5112786;28;20082;-60
2023/08/06 01:50:03;;;;;;;8.43;2.67;;;;;;;15.06;97.40;100607.47;5114609;27;20044;-61
2023/08/06 01:52:31;;;;;;;10.10;2.53;;;;;;;15.06;96.76;100626.06;5134411;27;20050;-61
2023/08/06 01:54:58;;;;;;;8.38;2.53;;;;;;;15.13;95.54;100615.19;5116227;27;20051;-61
2023/08/06 01:57:25;;;;;;;10.23;2.28;;;;;;;15.18;95.59;100620.53;5099059;28;20058;-59
2023/08/06 01:59:53;;;;;;;9.63;2.42;;;;;;;15.15;95.48;100635.88;5096012;28;20052;-60
2023/08/06 02:02:20;;;;;;;7.38;2.25;;;;;;;14.98;96.26;100632.50;5111708;28;20071;-60
2023/08/06 02:04:47;;;;;;;8.52;2.50;;;;;;;14.97;96.63;100636.44;5095693;28;20863;-59
2023/08/06 02:07:15;;;;;;;6.57;2.55;;;;;;;14.95;96.93;100647.06;5096046;28;20039;-60
2023/08/06 02:09:42;;;;;;;6.57;2.40;;;;;;;15.00;97.02;100644.06;5113217;28;20047;-60
2023/08/06 02:12:09;;;;;;;7.18;2.70;;;;;;;15.28;95.82;100639.47;5110463;28;20490;-61
2023/08/06 02:14:37;;;;;;;9.20;2.75;;;;;;;15.12;94.71;100653.22;5079028;28;20151;-60
2023/08/06 02:17:05;;;;;;;9.23;3.10;;;;;;;15.11;95.35;100648.03;5113515;28;20434;-60
2023/08/06 02:19:33;;;;;;;7.50;2.90;;;;;;;15.28;94.27;100651.38;5113322;28;20046;-61
2023/08/06 02:22:02;;;;;;;9.45;3.03;;;;;;;15.14;94.51;100650.91;5112314;28;20067;-60
2023/08/06 02:24:29;;;;;;;8.75;3.22;;;;;;;14.80;96.09;100656.06;5111205;28;20048;-60
2023/08/06 02:26:56;;;;;;;10.18;2.85;;;;;;;14.71;97.23;100666.44;5113823;28;20415;-60
2023/08/06 02:29:24;;;;;;;12.85;2.97;;;;;;;14.73;97.86;100661.34;5075439;28;20047;-61
2023/08/06 02:31:51;;;;;;;7.65;3.10;;;;;;;14.64;98.22;100662.25;5082555;28;20698;-60
2023/08/06 02:34:19;;;;;;;10.45;3.38;;;;;;;14.63;98.49;100676.44;5112502;28;20052;-60
2023/08/06 02:36:46;;;;;;;11.63;3.42;;;;;;;14.83;96.83;100678.38;5113770;28;20667;-61
2023/08/06 02:39:13;;;;;;;9.30;3.08;;;;;;;14.77;96.59;100676.94;5108416;28;20036;-61
2023/08/06 02:41:41;;;;;;;9.63;2.90;;;;;;;14.85;95.99;100680.78;5093753;28;20078;-60
2023/08/06 02:44:08;;;;;;;6.88;2.78;;;;;;;14.70;96.49;100685.03;5091821;28;20048;-60
2023/08/06 02:46:35;;;;;;;11.77;4.00;;;;;;;14.68;97.30;100682.59;5133810;28;20077;-60
2023/08/06 02:49:03;;;;;;;8.88;3.38;;;;;;;14.51;97.39;100680.00;5133316;28;20082;-60
2023/08/06 02:51:30;;;;;;;13.10;3.17;;;;;;;14.70;96.44;100685.03;5120105;28;20054;-60
2023/08/06 02:53:57;;;;;;;10.80;2.75;;;;;;;14.89;95.00;100690.06;5113669;28;20044;-61
2023/08/06 02:56:26;;;;;;;8.95;2.88;;;;;;;14.73;93.84;100698.22;5110118;28;20047;-60
2023/08/06 02:59:07;;;;;;;8.30;2.67;;;;;;;14.64;95.19;100703.81;5093896;28;20043;-60
2023/08/06 03:02:04;;;;;;;11.25;3.35;;;;;;;14.73;94.27;100705.72;5094768;28;20055;-60
2023/08/06 03:04:45;;;;;;;7.57;2.80;;;;;;;14.84;93.66;100710.47;5107488;28;20066;-60
2023/08/06 03:07:13;;;;;;;11.73;3.28;;;;;;;14.83;93.28;100708.06;5087067;28;20056;-60
2023/08/06 03:09:49;;;;;;;7.32;2.65;;;;;;;14.53;93.74;100715.69;5111767;28;20051;-60
2023/08/06 03:12:16;;;;;;;8.38;3.17;;;;;;;14.59;94.77;100717.91;5098242;28;20043;-60
2023/08/06 03:14:44;;;;;;;9.40;3.00;;;;;;;14.73;94.53;100712.09;5132561;28;20051;-60
2023/08/06 03:17:11;;;;;;;9.73;3.60;;;;;;;14.93;93.82;100721.47;5107731;28;20395;-60
2023/08/06 03:19:39;;;;;;;9.38;3.33;;;;;;;14.62;94.49;100717.25;5112559;28;20045;-60
2023/08/06 03:22:07;;;;;;;6.00;2.92;;;;;;;14.61;94.42;100723.09;5098042;28;20043;-60
2023/08/06 03:24:36;;;;;;;7.93;3.42;;;;;;;14.51;96.48;100720.75;5114539;28;20048;-60
2023/08/06 03:27:03;;;;;;;9.23;3.30;;;;;;;14.51;96.64;100724.34;5082090;28;20055;-62
2023/08/06 03:29:32;;;;;;;8.15;3.38;;;;;;;14.33;96.79;100719.28;5098755;28;20047;-60
2023/08/06 03:32:01;;;;;;;8.77;3.87;;;;;;;14.50;96.94;100725.50;5098585;28;20047;-60
2023/08/06 03:34:28;;;;;;;11.10;3.55;;;;;;;14.41;99.64;100727.53;5115388;28;20058;-61
2023/08/06 03:36:56;;;;;;;10.80;3.88;;;;;;;14.34;99.15;100720.91;5098178;28;20062;-61
2023/08/06 03:39:24;;;;;;;8.25;3.30;;;;;;;14.29;100.00;100723.88;5114641;28;20048;-60
2023/08/06 03:41:51;;;;;;;11.88;3.50;;;;;;;14.49;99.14;100728.59;5116645;28;20058;-61
2023/08/06 03:44:19;;;;;;;11.25;3.30;;;;;;;14.38;99.53;100728.19;5085249;28;20055;-59
2023/08/06 03:46:47;;;;;;;7.78;3.13;;;;;;;14.55;98.66;100730.84;5115154;28;20058;-60
2023/08/06 03:49:14;;;;;;;10.75;3.28;;;;;;;14.57;98.36;100736.81;5116385;28;20055;-60
2023/08/06 03:51:42;;;;;;;11.93;4.15;;;;;;;14.51;98.49;100740.16;5116086;28;20055;-61
2023/08/06 03:54:10;;;;;;;9.35;3.13;;;;;;;14.36;98.34;100747.13;5097137;28;20055;-61
2023/08/06 03:56:37;;;;;;;9.60;3.45;;;;;;;14.29;99.08;100743.28;5116127;27;20489;-59
2023/08/06 03:59:04;;;;;;;9.35;3.38;;;;;;;14.35;98.86;100744.69;5098431;28;20051;-60
2023/08/06 04:01:32;;;;;;;10.60;3.63;;;;;;;14.34;98.27;100749.44;5111447;28;20044;-59
2023/08/06 04:04:00;;;;;;;9.88;3.58;;;;;;;14.73;97.28;100745.34;5112630;28;20055;-61
2023/08/06 04:06:28;;;;;;;10.52;3.97;;;;;;;14.65;96.21;100749.81;5115791;28;20051;-60
2023/08/06 04:08:55;;;;;;;11.32;3.60;;;;;;;14.62;96.14;100756.06;5113839;28;20051;-60
2023/08/06 04:11:22;;;;;;;9.45;3.35;;;;;;;14.74;93.51;100755.28;5115976;28;20052;-60
2023/08/06 04:13:50;;;;;;;13.48;3.50;;;;;;;14.64;94.08;100762.03;5098046;28;20052;-60
2023/08/06 04:16:17;;;;;;;8.40;3.05;;;;;;;14.43;94.10;100769.59;5114881;28;20050;-61
2023/08/06 04:18:45;;;;;;;9.55;3.35;;;;;;;14.55;94.31;100779.91;5115367;28;20044;-61
2023/08/06 04:21:13;;;;;;;8.38;3.22;;;;;;;14.56;94.33;100793.44;5097772;28;20047;-60
2023/08/06 04:23:40;;;;;;;6.45;2.95;;;;;;;14.58;93.02;100793.91;5104222;28;20055;-60
2023/08/06 04:26:09;;;;;;;9.32;3.63;;;;;;;14.51;94.03;100806.69;5114584;28;20051;-60
2023/08/06 04:28:37;;;;;;;10.20;3.53;;;;;;;14.31;94.46;100808.28;5096753;28;20059;-60
2023/08/06 04:31:05;;;;;;;10.48;3.50;;;;;;;14.37;94.64;100811.66;5114811;28;20063;-60
2023/08/06 04:33:34;;;;;;;10.02;3.72;;;;;;;14.37;94.53;100803.34;5097298;28;20051;-60
2023/08/06 04:36:08;;;;;;;12.52;3.80;;;;;;;14.47;95.11;100825.16;5087047;28;20058;-60
2023/08/06 04:38:36;;;;;;;9.75;3.75;;;;;;;14.57;94.09;100821.97;5072971;27;20048;-60
2023/08/06 04:41:03;;;;;;;9.40;3.55;;;;;;;14.42;92.50;100820.59;5134278;27;20059;-60
2023/08/06 04:43:31;;;;;;;9.85;4.22;;;;;;;14.47;93.18;100803.75;5129231;27;20043;-60
2023/08/06 04:45:58;;;;;;;9.02;3.92;;;;;;;14.61;93.26;100798.78;5114092;28;20051;-60
2023/08/06 04:48:25;;;;;;;8.85;3.53;;;;;;;14.62;91.46;100816.22;5114822;28;20040;-60
2023/08/06 04:50:54;;;;;;;14.20;4.20;;;;;;;14.72;92.20;100810.25;5122614;27;20047;-61
2023/08/06 04:53:21;;;;;;;7.72;3.50;;;;;;;14.92;90.60;100819.72;5114591;28;20074;-63
2023/08/06 04:55:48;;;;;;;11.10;3.10;;;;;;;14.72;91.48;100832.44;5115190;28;20047;-61
2023/08/06 04:58:16;;;;;;;10.48;3.25;;;;;;;14.68;91.83;100840.63;5114115;28;20047;-60
2023/08/06 05:00:43;;;;;;;9.07;3.42;;;;;;;14.36;92.29;100841.34;5114801;28;20047;-61
2023/08/06 05:03:11;;;;;;;8.98;3.13;;;;;;;14.65;92.97;100840.50;5114618;28;20078;-61
2023/08/06 05:05:41;;;;;;;13.32;3.50;;;;;;;14.61;92.93;100843.13;5116344;27;20064;-59
2023/08/06 05:08:14;;;;;;;8.68;3.25;;;;;;;14.48;92.43;100843.38;5133365;27;20062;-60
2023/08/06 05:10:44;;;;;;;8.57;3.22;;;;;;;14.39;92.45;100850.94;5135167;27;20410;-61
2023/08/06 05:13:11;;;;;;;8.27;3.07;;;;;;;14.35;93.17;100849.97;5129958;27;20794;-59
2023/08/06 05:15:42;;;;;;;10.48;3.28;;;;;;;14.40;94.01;100863.66;5135035;27;20047;-60
2023/08/06 05:18:11;;;;;;;9.80;3.55;;;;;;;14.60;92.48;100876.72;5118727;27;20462;-60
2023/08/06 05:20:40;;;;;;;8.38;2.80;;;;;;;14.29;93.71;100876.28;5114638;28;20055;-61
2023/08/06 05:23:08;;;;;;;6.47;2.78;;;;;;;14.25;95.16;100889.13;5095884;28;20078;-61
2023/08/06 05:25:35;;;;;;;7.25;3.22;;;;;;;14.30;97.90;100875.94;5113026;28;20078;-61
2023/08/06 05:28:03;;;;;;;7.72;3.38;;;;;;;14.26;100.00;100879.72;5113972;28;20047;-60
2023/08/06 05:30:31;;;;;;;11.20;3.85;;;;;;;14.38;100.00;100883.38;5114038;28;20051;-61
2023/08/06 05:32:58;;;;;;;11.73;4.38;;;;;;;13.97;100.00;100888.78;5114765;28;20043;-61
2023/08/06 05:35:25;;;;;;;9.02;3.75;;;;;;;14.08;100.00;100889.22;5114847;28;20043;-61
2023/08/06 05:37:53;;;;;;;9.52;3.53;;;;;;;14.03;100.00;100906.03;5114733;28;20051;-60
2023/08/06 05:40:20;;;;;;;7.97;3.58;;;;;;;14.30;100.00;100911.13;5111471;28;20043;-63
2023/08/06 05:42:48;;;;;;;7.53;3.17;;;;;;;14.51;100.00;100918.38;5114241;28;20051;-60
2023/08/06 05:45:16;;;;;;;8.93;3.42;;;;;;;14.34;100.00;100923.19;5114591;28;20054;-61
2023/08/06 05:47:43;;;;;;;8.20;3.08;;;;;;;14.35;100.00;100927.56;5114446;28;20047;-60
2023/08/06 05:50:11;;;;;;;7.13;3.08;;;;;;;14.32;100.00;100917.16;5114178;28;20039;-59
2023/08/06 05:52:38;;;;;;;7.60;3.25;;;;;;;14.42;100.00;100925.91;5114868;28;20490;-61
2023/08/06 05:55:06;;;;;;;10.10;3.08;;;;;;;14.51;99.17;100936.94;5113755;28;20058;-59
2023/08/06 05:57:34;;;;;;;8.57;3.50;;;;;;;14.41;100.00;100924.28;5114118;28;20646;-61
2023/08/06 06:00:03;;;;;;;8.85;3.55;;;;;;;14.49;100.00;100923.44;5113754;28;20058;-60
2023/08/06 06:02:38;;;;;;;7.43;3.15;;;;;;;14.50;100.00;100929.78;5114498;28;20051;-60
2023/08/06 06:05:06;;;;;;;9.82;3.78;;;;;;;14.68;100.00;100936.06;5114188;28;20051;-61
2023/08/06 06:07:33;;;;;;;11.02;2.78;;;;;;;14.78;98.62;100939.25;5116984;27;20066;-61
2023/08/06 06:10:01;;;;;;;12.65;2.72;;;;;;;14.68;98.78;100947.16;5115866;27;20043;-61
2023/08/06 06:12:28;;;;;;;10.98;3.35;;;;;;;14.91;98.63;100940.94;5129517;27;20044;-61
2023/08/06 06:14:56;;;;;;;8.07;2.80;;;;;;;15.19;96.79;100946.78;5115588;28;20050;-61
2023/08/06 06:17:23;;;;;;;12.10;3.40;;;;;;;14.85;95.62;100958.94;5125078;28;20047;-62
2023/08/06 06:19:51;;;;;;;14.05;2.95;;;;;;;14.59;96.75;100959.06;5113712;28;20502;-61
2023/08/06 06:22:21;;;;;;;10.38;2.85;;;;;;;14.54;97.41;100964.00;5113971;28;20048;-60
2023/08/06 06:24:48;;;;;;;7.68;2.60;;;;;;;14.73;95.02;100953.31;5095563;28;20056;-61
2023/08/06 06:27:16;;;;;;;8.07;2.40;;;;;;;14.65;94.21;100960.53;5114067;28;20051;-60
2023/08/06 06:29:44;;;;;;;8.18;2.45;;;;;;;14.43;94.63;100973.84;5114141;28;20051;-61
2023/08/06 06:32:11;;;;;;;7.55;2.35;;;;;;;14.41;95.45;100971.41;5092886;28;20273;-61
2023/08/06 06:34:39;;;;;;;6.10;2.10;;;;;;;14.62;93.77;100969.53;5113284;28;20070;-61
2023/08/06 06:37:06;;;;;;;8.32;2.53;;;;;;;14.43;94.52;100982.16;5112605;28;20426;-61
2023/08/06 06:39:33;;;;;;;7.55;2.55;;;;;;;14.43;94.56;100991.28;5114089;28;20059;-61
2023/08/06 06:42:01;;;;;;;8.52;2.55;;;;;;;14.30;96.20;100989.53;5114288;28;20055;-60
2023/08/06 06:44:36;;;;;;;6.22;2.28;;;;;;;14.46;95.59;100987.84;5095064;28;20052;-64
2023/08/06 06:47:03;;;;;;;6.45;2.00;;;;;;;14.46;95.36;100992.56;5095394;28;20058;-61
2023/08/06 06:49:31;;;;;;;8.23;2.38;;;;;;;14.68;95.90;100993.13;5113716;28;20051;-61
2023/08/06 06:51:58;;;;;;;8.18;2.47;;;;;;;14.82;92.93;101000.41;5093857;28;20376;-60
2023/08/06 06:54:26;;;;;;;7.80;2.30;;;;;;;14.88;91.86;101010.13;5113929;28;20051;-63
2023/08/06 06:56:53;;;;;;;5.15;1.88;;;;;;;14.60;91.60;101015.34;5117926;28;20043;-60
2023/08/06 06:59:21;;;;;;;7.28;2.03;;;;;;;14.78;91.36;101010.53;5117621;28;20054;-61
2023/08/06 07:01:48;;;;;;;9.18;2.33;;;;;;;14.68;88.75;101009.75;5116330;28;20399;-60
2023/08/06 07:04:16;;;;;;;5.15;1.70;;;;;;;14.82;87.95;101003.97;5117421;28;20055;-61
2023/08/06 07:06:43;;;;;;;6.15;1.70;;;;;;;14.87;87.09;101000.22;5116441;28;20069;-62
2023/08/06 07:09:11;;;;;;;14.00;2.78;;;;;;;14.88;85.41;101008.19;5117030;28;20051;-60
2023/08/06 07:11:38;;;;;;;6.10;2.00;;;;;;;15.00;84.22;101013.00;5117357;28;20039;-62
2023/08/06 07:14:08;;;;;;;8.13;2.30;;;;;;;14.74;84.39;101017.88;5133118;27;20047;-61
2023/08/06 07:16:35;;;;;;;5.25;1.90;;;;;;;14.83;83.63;101032.53;5112604;28;20064;-61
2023/08/06 07:19:02;;;;;;;5.35;1.90;;;;;;;14.77;84.16;101031.91;5087810;28;20055;-61
2023/08/06 07:21:30;;;;;;;6.63;2.17;;;;;;;14.95;82.56;101024.31;5110102;28;20519;-61
2023/08/06 07:23:59;;;;;;;6.75;1.75;;;;;;;15.08;81.40;101026.81;5115410;27;20502;-60
2023/08/06 07:26:26;;;;;;;4.43;2.08;;;;;;;15.03;79.87;101031.78;5096783;28;20044;-61
2023/08/06 07:28:54;;;;;;;8.40;2.10;;;;;;;15.08;78.45;101040.69;5096234;28;20048;-60
2023/08/06 07:31:21;;;;;;;4.82;1.77;;;;;;;14.87;79.24;101022.41;5098143;28;20054;-60
2023/08/06 07:33:49;;;;;;;7.78;1.73;;;;;;;14.96;79.59;101046.16;5109385;27;20051;-61
2023/08/06 07:36:16;;;;;;;7.20;2.25;;;;;;;15.03;76.95;101026.22;5110960;28;20044;-60
2023/08/06 07:38:44;;;;;;;6.88;2.35;;;;;;;15.05;76.79;101037.78;5114661;28;20047;-60
2023/08/06 07:41:11;;;;;;;8.95;1.83;;;;;;;15.19;76.09;101028.06;5108477;28;20085;-60
2023/08/06 07:43:39;;;;;;;13.02;2.47;;;;;;;15.37;75.23;101042.63;5114215;27;20510;-59
2023/08/06 07:46:06;;;;;;;7.63;2.22;;;;;;;15.27;71.61;101046.59;5092424;28;20051;-60
2023/08/06 07:48:34;;;;;;;7.40;2.30;;;;;;;15.29;71.94;101046.31;5104066;28;20047;-60
2023/08/06 07:51:01;;;;;;;8.75;2.20;;;;;;;15.30;69.96;101042.34;5091517;28;20046;-61
2023/08/06 07:53:32;;;;;;;5.18;1.92;;;;;;;15.22;70.01;101068.22;5110134;28;20048;-64
2023/08/06 07:56:01;;;;;;;9.68;2.45;;;;;;;15.30;71.25;101051.50;5110885;27;20636;-60
2023/08/06 07:58:29;;;;;;;6.35;2.13;;;;;;;15.66;70.03;101042.59;5109296;28;20051;-60
2023/08/06 08:00:57;;;;;;;5.75;1.98;;;;;;;16.03;69.44;101054.69;5104901;28;20051;-60
2023/08/06 08:03:27;;;;;;;6.10;1.80;;;;;;;15.88;70.83;101058.09;5107337;28;20565;-60
2023/08/06 08:05:56;;;;;;;;;;;;;;;15.92;73.39;101067.41;5108424;28;20411;-60
2023/08/06 08:08:24;;;;;;;5.82;1.80;;;;;;;16.06;72.85;101065.09;5112614;27;19919;-62
2023/08/06 08:10:51;;;;;;;7.00;2.40;;;;;;;16.09;68.58;101061.66;5096728;28;20051;-62
2023/08/06 08:13:19;;;;;;;8.32;2.33;;;;;;;15.56;70.89;101073.56;5111302;28;20406;-62
2023/08/06 08:15:46;;;;;;;6.35;2.47;;;;;;;15.29;70.98;101094.28;5117255;27;20044;-61
2023/08/06 08:18:14;;;;;;;9.95;2.75;;;;;;;15.45;71.98;101073.13;5107830;27;20540;-62
2023/08/06 08:20:41;;;;;;;7.70;2.20;;;;;;;15.31;71.49;101077.28;5112701;28;20051;-61
2023/08/06 08:23:09;;;;;;;8.88;2.42;;;;;;;15.38;71.88;101072.84;5095372;28;20410;-63
2023/08/06 08:25:36;;;;;;;9.60;2.85;;;;;;;15.68;69.94;101082.78;5099552;27;20062;-62
2023/08/06 08:28:04;;;;;;;6.30;2.15;;;;;;;15.75;67.75;101082.22;5066611;28;20043;-61
2023/08/06 08:30:32;;;;;;;8.88;2.45;;;;;;;15.66;67.26;101090.63;5108851;28;20059;-62
2023/08/06 08:32:59;;;;;;;6.07;2.30;;;;;;;15.70;66.72;101096.31;5112350;28;20039;-62
2023/08/06 08:35:27;;;;;;;7.47;2.10;;;;;;;15.51;67.64;101099.56;5115704;28;20055;-60
2023/08/06 08:37:54;;;;;;;5.85;2.40;;;;;;;15.43;67.26;101097.66;5115857;28;20059;-61
2023/08/06 08:40:27;;;;;;;6.72;2.50;;;;;;;15.50;66.40;101106.25;5101908;28;20063;-61
2023/08/06 08:42:59;;;;;;;6.22;2.42;;;;;;;15.57;66.14;101116.81;5095838;28;20043;-62
2023/08/06 08:45:29;;;;;;;7.93;2.40;;;;;;;15.56;65.53;101116.03;5111993;28;20043;-61
2023/08/06 08:47:56;;;;;;;7.37;2.37;;;;;;;15.63;64.87;101119.09;5115450;28;20059;-59
2023/08/06 08:50:24;;;;;;;8.30;2.45;;;;;;;15.82;64.91;101110.28;5112250;28;20044;-61
2023/08/06 08:52:52;;;;;;;5.97;2.10;;;;;;;15.88;65.65;101122.00;5115655;28;20047;-62
2023/08/06 08:55:21;;;;;;;6.38;2.65;;;;;;;16.01;63.92;101115.34;5092490;28;20051;-61
2023/08/06 08:57:48;;;;;;;7.05;2.60;;;;;;;16.03;63.65;101119.41;5107173;28;20269;-59
2023/08/06 09:00:16;;;;;;;5.78;2.05;;;;;;;16.23;63.07;101109.44;5093279;28;20048;-60
2023/08/06 09:02:44;;;;;;;5.78;2.20;;;;;;;16.07;63.70;101127.88;5106958;27;20035;-60
2023/08/06 09:05:12;;;;;;;5.43;2.08;;;;;;;16.16;63.78;101128.63;5088986;28;20075;-61
2023/08/06 09:07:48;;;;;;;7.50;2.28;;;;;;;15.91;63.66;101129.66;5079808;28;20039;-61
2023/08/06 09:10:21;;;;;;;6.60;2.40;;;;;;;15.96;64.34;101152.50;5094292;28;20039;-62
2023/08/06 09:12:51;;;;;;;4.95;1.85;;;;;;;16.00;63.30;101147.91;5099903;27;20069;-61
2023/08/06 09:15:18;;;;;;;5.57;1.92;;;;;;;15.65;61.93;101144.56;5113389;27;20044;-60
2023/08/06 09:17:45;;;;;;;9.55;2.30;;;;;;;15.83;62.73;101131.34;5102852;28;20055;-63
2023/08/06 09:20:14;;;;;;;5.50;2.33;;;;;;;16.09;62.08;101126.38;5099723;28;20458;-60
2023/08/06 09:22:45;;;;;;;7.07;2.00;;;;;;;16.14;60.59;101142.06;5079391;28;20059;-62
2023/08/06 09:25:20;;;;;;;7.78;2.50;;;;;;;16.37;60.78;101130.22;5095146;28;20121;-61
2023/08/06 09:27:48;;;;;;;8.43;2.28;;;;;;;16.27;59.50;101133.41;5114155;28;20043;-61
2023/08/06 09:30:32;;;;;;;6.47;1.98;;;;;;;16.43;58.18;101134.41;5094141;27;20055;-62
2023/08/06 09:33:00;;;;;;;6.78;1.90;;;;;;;16.35;58.50;101145.63;5087092;28;20450;-61
2023/08/06 09:35:31;;;;;;;5.57;2.00;;;;;;;16.58;58.36;101133.78;5075142;27;20051;-62
2023/08/06 09:38:10;;;;;;;7.22;2.08;;;;;;;16.60;58.34;101147.34;5105257;27;20047;-61
2023/08/06 09:40:39;;;;;;;9.60;2.25;;;;;;;16.63;58.39;101141.91;5105343;27;20360;-63
2023/08/06 09:43:06;;;;;;;9.05;2.30;;;;;;;16.61;60.12;101146.22;5082853;28;20052;-61
2023/08/06 09:45:36;;;;;;;8.38;2.17;;;;;;;16.89;60.38;101150.78;5100354;27;20055;-61
2023/08/06 09:48:05;;;;;;;7.27;2.03;;;;;;;16.82;59.42;101172.00;5073393;28;20048;-64
2023/08/06 09:50:37;;;;;;;7.82;1.95;;;;;;;16.42;59.95;101155.00;5069847;28;20038;-62
2023/08/06 09:53:08;;;;;;;10.10;2.33;;;;;;;16.43;60.17;101158.63;5106439;27;20058;-61
2023/08/06 09:55:36;;;;;;;9.30;2.05;;;;;;;16.56;59.39;101152.00;5096316;27;20050;-61
2023/08/06 09:58:05;;;;;;;7.80;1.90;;;;;;;16.60;57.58;101150.94;5085819;28;20721;-63
2023/08/06 10:00:34;;;;;;;5.35;1.85;;;;;;;16.65;56.53;101153.50;5106284;28;20667;-62
2023/08/06 10:03:06;;;;;;;6.65;1.80;;;;;;;16.63;55.71;101169.72;5103707;28;20067;-61
2023/08/06 10:05:35;;;;;;;8.95;1.85;;;;;;;16.54;57.16;101152.34;5094272;28;20060;-61
2023/08/06 10:08:03;;;;;;;8.20;2.22;;;;;;;16.74;57.85;101158.97;5082693;28;20517;-62
2023/08/06 10:10:31;;;;;;;8.48;2.30;;;;;;;16.62;58.61;101159.75;5088597;28;20052;-62
2023/08/06 10:13:00;;;;;;;9.43;2.17;;;;;;;16.53;59.31;101164.59;5087125;28;20154;-63
2023/08/06 10:15:31;;;;;;;6.70;2.10;;;;;;;16.71;57.75;101157.72;5092668;28;20048;-62
2023/08/06 10:17:59;;;;;;;5.70;2.30;;;;;;;16.94;57.77;101157.28;5095562;28;20096;-61
2023/08/06 10:20:34;;;;;;;6.30;2.38;;;;;;;17.32;58.26;101166.13;5094771;28;20045;-61
2023/08/06 10:23:05;;;;;;;6.50;2.05;;;;;;;17.51;55.83;101161.66;5085660;28;20049;-62
2023/08/06 10:25:34;;;;;;;5.97;1.90;;;;;;;17.58;54.22;101161.88;5089682;28;20055;-62
2023/08/06 10:28:09;;;;;;;7.13;2.15;;;;;;;17.52;54.43;101187.53;5095270;28;20035;-62
2023/08/06 10:30:55;;;;;;;6.43;1.65;;;;;;;17.13;54.27;101174.25;5107011;27;20052;-63
2023/08/06 10:33:23;;;;;;;6.47;2.30;;;;;;;17.05;55.75;101162.06;5106177;28;20434;-63
2023/08/06 10:35:50;;;;;;;6.05;1.88;;;;;;;16.97;55.23;101179.69;5111523;28;20062;-63
2023/08/06 10:38:25;;;;;;;7.18;1.63;;;;;;;17.16;55.22;101167.97;5095431;27;20050;-63
2023/08/06 10:40:52;;;;;;;7.25;1.92;;;;;;;17.18;54.40;101169.28;5082473;28;20456;-63
2023/08/06 10:43:37;;;;;;;6.43;2.03;;;;;;;17.25;55.23;101166.72;5109363;28;20479;-63
2023/08/06 10:46:10;;;;;;;5.60;2.10;;;;;;;17.23;55.26;101188.53;5107348;28;20065;-62
2023/08/06 10:48:39;;;;;;;6.90;1.85;;;;;;;17.30;55.51;101197.13;5091184;27;20056;-63
2023/08/06 10:51:11;;;;;;;7.10;1.95;;;;;;;17.43;54.88;101204.34;5106734;27;20051;-62
2023/08/06 10:53:45;;;;;;;8.40;1.90;;;;;;;17.58;54.03;101169.41;5096735;27;20051;-61
2023/08/06 10:56:17;;;;;;;4.20;1.80;;;;;;;17.36;53.54;101190.19;5095790;27;20415;-62
2023/08/06 10:58:46;;;;;;;5.18;1.70;;;;;;;17.30;54.46;101177.63;5090106;28;20578;-60
2023/08/06 11:01:13;;;;;;;4.97;1.67;;;;;;;17.51;54.45;101185.91;5094398;27;20051;-63
2023/08/06 11:03:42;;;;;;;5.63;1.92;;;;;;;17.67;53.68;101184.84;5111332;27;20058;-64
2023/08/06 11:06:10;;;;;;;5.43;1.90;;;;;;;17.76;54.02;101170.81;5100839;28;20044;-64
2023/08/06 11:08:47;;;;;;;4.50;1.80;;;;;;;17.60;51.69;101167.91;5089517;27;20047;-62
2023/08/06 11:11:17;;;;;;;5.55;1.40;;;;;;;17.50;51.42;101193.47;5100356;28;20044;-62
2023/08/06 11:13:47;;;;;;;6.35;1.42;;;;;;;17.54;51.66;101188.00;5097573;28;20518;-61
2023/08/06 11:16:16;;;;;;;5.78;1.90;;;;;;;17.59;52.29;101196.91;5098649;28;20047;-62
2023/08/06 11:18:44;;;;;;;5.57;1.80;;;;;;;17.66;52.54;101179.63;5051670;28;20054;-63
2023/08/06 11:21:12;;;;;;;9.43;1.60;;;;;;;17.85;52.59;101189.00;5102666;28;20043;-66
2023/08/06 11:23:40;;;;;;;5.85;1.88;;;;;;;17.80;52.64;101188.44;5109599;28;20043;-63
2023/08/06 11:26:08;;;;;;;4.45;1.58;;;;;;;17.84;53.03;101186.56;5091496;28;20047;-62
2023/08/06 11:28:35;;;;;;;11.85;2.38;;;;;;;17.92;52.03;101172.50;5089954;28;20066;-64